Terminal Aerodrome Forecast
Issued by NWS Central Illinois

Home | Current Version | Previous Version | Text Only | Print | Product List | Glossary On
Versions: 1 2 3 4 5 6 7 8 9 10 11 12 13 14 15 16
000
FTUS43 KILX 241100
TAFSPI
TAF
KSPI 241136Z 2412/2512 13015KT P6SM BKN100
     FM241400 15015G30KT P6SM SCT090 OVC250
     FM241900 16018G28KT P6SM VCSH OVC060
     FM242300 16015G25KT 5SM -TSRA BR OVC035CB
     FM250200 14010KT 6SM -RA VCTS OVC015CB
     FM250600 33012KT P6SM VCSH SCT006 OVC012=

USA.gov is the U.S. government's official web portal to all federal, state and local government web resources and services.